Vunisea, Fiji
Current Conditions -  °F | °C
As of 4:00 AM on Tuesday 23 Dec 2014 (Local Time) from NFNA Reporting Station
Few Clouds Few Clouds  
Wind Chill: 79°   Ceiling: Unl
Heat Index: 82°   Visibility: 6mi
Dew Point: 72°   Wind: 7mph
Humidity: 78%   Direction: 110°ESE
Pressure: 29.77"   Gusts: NA
Location:  19.05°S, 178.17°E
Report Text: NFNA 221600Z 11006KT 9999 FEW022 26/22 Q1008
Loading
Personal Weather Stations






























Interactive Weather Map New forecast layout! Learn more

10-Day Weather Forecast

Advertisements
Track Severe Weather on mobile